Time;durP1;ratioP1;P1;durP2;ratioP2;P2;SDS_P1;SDS_P2;PMS_P1;PMS_P2;Temp;Humidity;BMP_temperature;BMP_pressure;BME280_temperature;BME280_humidity;BME280_pressure;Samples;Min_cycle;Max_cycle;Signal;HPM_P1;HPM_P2
2022/01/17 00:00:31;;;;;;;1.67;1.10;;;29.10;65.80;;;;;;4148938;28;20095;-58
2022/01/17 00:02:53;;;;;;;;;;;29.10;65.80;;;;;;4147313;28;20069;-62
2022/01/17 00:05:17;;;;;;;2.05;1.02;;;29.10;65.70;;;;;;4139496;28;19913;-59
2022/01/17 00:07:40;;;;;;;2.35;0.80;;;29.10;65.80;;;;;;4153523;28;20064;-60
2022/01/17 00:10:06;;;;;;;0.88;0.80;;;29.10;65.80;;;;;;4154812;28;20556;-59
2022/01/17 00:12:32;;;;;;;0.80;0.73;;;29.20;65.90;;;;;;4150840;28;20584;-59
2022/01/17 00:14:56;;;;;;;1.90;1.00;;;29.20;65.90;;;;;;4152016;28;20776;-59
2022/01/17 00:19:47;;;;;;;1.15;0.98;;;29.30;65.80;;;;;;4151112;28;20631;-58
2022/01/17 00:22:11;;;;;;;2.15;0.90;;;29.30;65.80;;;;;;4147042;28;20052;-60
2022/01/17 00:24:34;;;;;;;1.85;0.80;;;29.30;65.80;;;;;;4146583;28;20743;-60
2022/01/17 00:26:57;;;;;;;2.88;1.02;;;29.30;65.80;;;;;;4142607;28;20092;-59
2022/01/17 00:29:21;;;;;;;1.63;1.10;;;29.30;65.60;;;;;;4151446;28;20103;-60
2022/01/17 00:31:44;;;;;;;5.75;2.00;;;29.40;65.50;;;;;;4148834;28;20037;-60
2022/01/17 00:34:07;;;;;;;3.78;2.30;;;29.30;65.20;;;;;;4135890;28;20055;-59
2022/01/17 00:36:30;;;;;;;2.05;1.40;;;29.30;65.10;;;;;;4153848;28;20029;-60
2022/01/17 00:38:53;;;;;;;2.20;1.50;;;29.40;65.30;;;;;;4150237;28;20807;-60
2022/01/17 00:41:17;;;;;;;3.42;1.73;;;29.40;65.30;;;;;;4144534;28;20510;-55
2022/01/17 00:43:41;;;;;;;1.63;1.13;;;29.40;65.40;;;;;;4149459;28;20060;-57
2022/01/17 00:46:04;;;;;;;1.73;1.08;;;29.40;65.40;;;;;;4152498;28;20050;-59
2022/01/17 00:48:27;;;;;;;3.22;1.20;;;29.50;65.40;;;;;;4152957;28;20198;-60
2022/01/17 00:50:50;;;;;;;4.30;0.70;;;29.50;65.50;;;;;;4153761;28;20041;-60
2022/01/17 00:53:13;;;;;;;1.17;1.02;;;29.50;65.50;;;;;;4150094;28;20088;-56
2022/01/17 00:55:37;;;;;;;;;;;29.50;65.50;;;;;;4153537;28;20045;-59
2022/01/17 00:57:59;;;;;;;2.83;0.93;;;29.60;65.50;;;;;;4157298;28;20538;-59
2022/01/17 01:00:23;;;;;;;1.30;0.82;;;29.60;65.40;;;;;;4155161;28;20077;-59
2022/01/17 01:02:46;;;;;;;;;;;29.60;65.50;;;;;;4149485;28;20588;-59
2022/01/17 01:05:11;;;;;;;3.83;1.10;;;29.70;65.50;;;;;;4141097;28;20040;-59
2022/01/17 01:07:35;;;;;;;3.72;1.08;;;29.70;65.40;;;;;;4156097;28;20517;-57
2022/01/17 01:10:10;;;;;;;2.17;0.95;;;29.70;65.30;;;;;;4156014;28;20057;-58
2022/01/17 01:12:33;;;;;;;3.88;0.80;;;29.80;65.40;;;;;;4158242;28;20064;-59
2022/01/17 01:14:57;;;;;;;2.42;0.82;;;29.80;65.40;;;;;;4155771;28;20047;-56
2022/01/17 01:17:35;;;;;;;1.25;0.70;;;29.80;65.30;;;;;;4157176;28;20809;-58
2022/01/17 01:20:24;;;;;;;0.50;0.50;;;29.80;65.40;;;;;;4164923;28;20053;-55
2022/01/17 01:28:09;;;;;;;1.42;0.90;;;29.90;65.40;;;;;;4153306;28;20818;-49
2022/01/17 01:30:35;;;;;;;2.58;0.90;;;29.90;65.20;;;;;;4158216;28;20049;-58
2022/01/17 01:33:00;;;;;;;5.40;1.70;;;30.00;65.20;;;;;;4154506;28;20117;-56
2022/01/17 01:35:26;;;;;;;7.85;1.55;;;30.00;64.90;;;;;;4141993;28;20048;-58
2022/01/17 01:37:49;;;;;;;4.40;1.35;;;30.00;65.00;;;;;;4157432;28;20581;-58
2022/01/17 01:40:16;;;;;;;4.80;1.45;;;30.10;65.20;;;;;;4156332;28;20446;-57
2022/01/17 01:42:39;;;;;;;4.72;1.60;;;30.10;65.40;;;;;;4156146;28;20815;-53
2022/01/17 01:45:07;;;;;;;1.52;1.30;;;30.10;65.50;;;;;;4158719;28;20045;-58
2022/01/17 01:47:30;;;;;;;2.53;1.13;;;30.10;65.70;;;;;;4160218;28;20502;-48
2022/01/17 01:49:54;;;;;;;3.95;0.80;;;30.20;65.50;;;;;;4159337;28;20131;-54
2022/01/17 01:52:18;;;;;;;13.40;1.02;;;30.20;65.40;;;;;;4137593;28;20040;-58
2022/01/17 01:54:41;;;;;;;2.35;1.10;;;30.30;65.40;;;;;;4158271;28;20122;-54
2022/01/17 01:57:05;;;;;;;10.80;1.08;;;30.30;65.20;;;;;;4160543;28;20061;-56
2022/01/17 01:59:31;;;;;;;4.95;1.65;;;30.40;65.20;;;;;;4157284;28;20053;-55
2022/01/17 02:01:54;;;;;;;5.80;1.38;;;30.40;65.40;;;;;;4166748;28;20175;-50
2022/01/17 02:04:18;;;;;;;2.83;0.85;;;30.40;65.60;;;;;;4162895;28;20529;-57
2022/01/17 02:06:43;;;;;;;7.60;2.20;;;30.40;65.70;;;;;;4163887;28;20048;-52
2022/01/17 02:09:06;;;;;;;7.53;1.75;;;30.50;66.00;;;;;;4156009;28;20582;-57
2022/01/17 02:11:31;;;;;;;3.35;1.70;;;30.50;66.00;;;;;;4157313;28;20123;-54
2022/01/17 02:13:54;;;;;;;4.47;1.30;;;30.50;66.00;;;;;;4142157;28;20037;-52
2022/01/17 02:16:19;;;;;;;2.35;1.30;;;30.50;66.10;;;;;;4140904;28;20100;-50
2022/01/17 02:18:46;;;;;;;2.13;1.33;;;30.60;66.20;;;;;;4153897;28;20053;-51
2022/01/17 02:23:40;;;;;;;3.42;1.58;;;30.70;65.90;;;;;;4151589;28;20058;-52
2022/01/17 02:26:03;;;;;;;3.78;1.98;;;30.70;65.70;;;;;;4090420;28;20459;-54
2022/01/17 02:28:25;;;;;;;;;;;30.70;66.10;;;;;;4135621;28;20140;-49
2022/01/17 02:30:49;;;;;;;3.78;1.85;;;30.70;65.90;;;;;;4131429;28;19927;-48
2022/01/17 02:33:11;;;;;;;;;;;30.70;66.00;;;;;;4129795;28;20034;-49
2022/01/17 02:35:35;;;;;;;2.58;1.45;;;30.70;66.10;;;;;;4134884;28;19920;-50
2022/01/17 02:37:59;;;;;;;1.50;1.10;;;30.80;66.20;;;;;;4132608;28;20683;-47
2022/01/17 02:40:23;;;;;;;2.08;1.17;;;30.80;66.30;;;;;;4144198;28;20637;-51
2022/01/17 02:43:02;;;;;;;1.88;1.10;;;30.80;66.10;;;;;;4136066;28;20628;-51
2022/01/17 02:47:55;;;;;;;1.70;1.00;;;30.80;66.40;;;;;;4138330;28;20514;-53
2022/01/17 02:50:18;;;;;;;;;;;30.80;66.40;;;;;;4135608;28;20108;-56
2022/01/17 02:52:40;;;;;;;1.80;1.10;;;30.80;66.50;;;;;;4138860;28;19909;-55
2022/01/17 02:55:04;;;;;;;2.55;0.93;;;30.80;66.60;;;;;;4131228;28;20063;-52
2022/01/17 02:57:32;;;;;;;2.00;1.15;;;30.80;66.80;;;;;;4137544;28;20046;-53
2022/01/17 02:59:55;;;;;;;1.73;0.93;;;30.80;66.90;;;;;;4116148;28;20046;-55
2022/01/17 03:02:18;;;;;;;1.73;0.90;;;30.80;67.00;;;;;;4119166;28;20049;-55
2022/01/17 03:04:41;;;;;;;;;;;30.90;67.10;;;;;;4124318;28;20137;-56
2022/01/17 03:07:04;;;;;;;1.02;0.85;;;30.90;67.00;;;;;;4124246;28;20498;-58
2022/01/17 03:09:35;;;;;;;1.60;1.00;;;30.90;67.00;;;;;;4121212;28;20658;-55
2022/01/17 03:11:59;;;;;;;1.48;0.90;;;30.90;67.00;;;;;;4131610;28;20041;-51
2022/01/17 03:14:23;;;;;;;10.55;1.60;;;30.90;67.00;;;;;;4121331;28;20038;-48
2022/01/17 03:16:47;;;;;;;7.07;1.17;;;31.00;67.20;;;;;;4111286;28;20057;-51
2022/01/17 03:19:10;;;;;;;5.05;1.85;;;31.00;67.30;;;;;;4120151;28;20515;-50
2022/01/17 03:21:35;;;;;;;7.00;1.10;;;31.00;67.30;;;;;;4112564;28;20042;-56
2022/01/17 03:23:59;;;;;;;5.80;1.50;;;31.10;67.40;;;;;;4117172;28;20042;-53
2022/01/17 03:26:22;;;;;;;4.63;1.23;;;31.10;67.50;;;;;;4118720;28;20049;-53
2022/01/17 03:28:45;;;;;;;5.63;1.23;;;31.10;67.60;;;;;;4112377;28;20109;-55
2022/01/17 03:31:10;;;;;;;4.05;1.27;;;31.20;67.90;;;;;;4119170;28;20061;-52
2022/01/17 03:33:34;;;;;;;2.72;1.00;;;31.20;68.00;;;;;;4120560;28;20147;-52
2022/01/17 03:35:58;;;;;;;3.53;1.00;;;31.20;68.20;;;;;;4115827;28;20038;-52
2022/01/17 03:38:25;;;;;;;3.50;1.02;;;31.30;68.40;;;;;;4117708;28;20030;-54
2022/01/17 03:40:50;;;;;;;1.33;1.00;;;31.30;68.30;;;;;;4116036;28;20042;-51
2022/01/17 03:43:14;;;;;;;1.08;0.80;;;31.30;68.20;;;;;;4111499;28;20066;-54
2022/01/17 03:45:37;;;;;;;1.63;0.70;;;31.40;68.30;;;;;;4112401;28;20117;-57
2022/01/17 03:48:00;;;;;;;;;;;31.40;68.30;;;;;;4100251;28;20501;-52
2022/01/17 03:50:26;;;;;;;1.10;1.00;;;31.40;68.40;;;;;;4113390;28;20314;-57
2022/01/17 03:52:50;;;;;;;2.17;1.10;;;31.40;68.10;;;;;;4133199;28;20362;-52
2022/01/17 03:55:16;;;;;;;1.85;1.00;;;31.50;68.10;;;;;;4134302;28;20041;-55
2022/01/17 03:57:41;;;;;;;1.85;1.20;;;31.50;68.00;;;;;;4132639;28;20101;-55
2022/01/17 04:00:09;;;;;;;1.48;1.33;;;31.50;68.20;;;;;;4132901;28;20057;-56
2022/01/17 04:02:32;;;;;;;5.28;1.27;;;31.50;68.20;;;;;;4129119;28;20046;-55
2022/01/17 04:04:56;;;;;;;2.67;1.17;;;31.50;68.30;;;;;;4130703;28;20093;-51
2022/01/17 04:07:19;;;;;;;2.45;1.00;;;31.50;68.40;;;;;;4132762;28;20057;-49
2022/01/17 04:09:42;;;;;;;5.37;1.33;;;31.50;68.40;;;;;;4131369;28;20795;-52
2022/01/17 04:12:04;;;;;;;;;;;31.50;68.50;;;;;;4132928;28;21033;-57
2022/01/17 04:14:31;;;;;;;2.50;1.52;;;31.50;68.50;;;;;;4128330;28;19914;-57
2022/01/17 04:16:54;;;;;;;1.95;1.27;;;31.50;68.40;;;;;;4128412;28;20042;-57
2022/01/17 04:19:19;;;;;;;3.58;1.42;;;31.50;68.40;;;;;;4131537;28;20084;-56
2022/01/17 04:21:45;;;;;;;1.90;1.30;;;31.60;68.50;;;;;;4134663;28;20038;-56
2022/01/17 04:24:08;;;;;;;1.98;1.48;;;31.50;68.40;;;;;;4130720;28;20034;-55
2022/01/17 04:26:32;;;;;;;4.20;1.40;;;31.60;68.40;;;;;;4132377;28;20056;-59
2022/01/17 04:28:55;;;;;;;2.60;1.60;;;31.60;68.50;;;;;;4131647;28;20046;-51
2022/01/17 04:31:19;;;;;;;2.08;1.40;;;31.60;68.40;;;;;;4133113;28;20049;-53
2022/01/17 04:33:42;;;;;;;4.15;1.52;;;31.70;68.50;;;;;;4129466;28;20065;-55
2022/01/17 04:36:07;;;;;;;2.20;1.40;;;31.70;68.50;;;;;;4127798;28;20042;-56
2022/01/17 04:38:30;;;;;;;2.00;1.55;;;31.70;68.40;;;;;;4130826;28;20039;-57
2022/01/17 04:41:02;;;;;;;1.98;1.50;;;31.70;68.40;;;;;;4130729;28;20154;-52
2022/01/17 04:46:04;;;;;;;2.90;1.50;;;31.70;68.20;;;;;;4135129;28;20542;-59
2022/01/17 04:48:27;;;;;;;2.28;1.40;;;31.80;68.80;;;;;;4130695;28;20034;-54
2022/01/17 04:50:50;;;;;;;2.75;1.60;;;31.80;68.10;;;;;;4132646;28;20049;-51
2022/01/17 04:53:17;;;;;;;2.83;1.55;;;31.80;68.70;;;;;;4131110;28;20046;-52
2022/01/17 04:55:41;;;;;;;3.22;1.50;;;31.80;68.00;;;;;;4133728;28;20148;-58
2022/01/17 04:58:04;;;;;;;4.43;1.70;;;31.80;68.00;;;;;;4119291;28;20058;-54
2022/01/17 05:00:28;;;;;;;2.35;1.50;;;31.80;68.10;;;;;;4133862;28;20041;-58
2022/01/17 05:02:52;;;;;;;2.97;1.63;;;31.80;68.00;;;;;;4132060;28;20720;-55
2022/01/17 05:05:20;;;;;;;3.58;1.88;;;31.90;68.10;;;;;;4131617;28;20087;-50
2022/01/17 05:07:44;;;;;;;2.92;1.85;;;31.90;68.20;;;;;;4116245;28;20038;-55
2022/01/17 05:10:10;;;;;;;2.92;1.80;;;31.90;68.20;;;;;;4128938;28;20045;-58
2022/01/17 05:12:33;;;;;;;2.35;1.63;;;31.90;68.20;;;;;;4132176;28;20038;-55
2022/01/17 05:14:57;;;;;;;;;;;31.90;68.20;;;;;;4133176;28;20046;-48
2022/01/17 05:19:54;;;;;;;2.60;1.75;;;32.00;68.20;;;;;;4131883;28;19957;-51
2022/01/17 05:22:21;;;;;;;2.80;1.80;;;32.00;68.10;;;;;;4128545;28;20057;-52
2022/01/17 05:24:44;;;;;;;3.63;1.60;;;32.00;68.00;;;;;;4121532;28;20716;-55
2022/01/17 05:27:07;;;;;;;3.45;1.63;;;32.00;68.10;;;;;;4127548;28;20038;-56
2022/01/17 05:29:30;;;;;;;2.75;1.83;;;32.00;68.10;;;;;;4127778;28;20220;-58
2022/01/17 05:31:53;;;;;;;3.13;1.48;;;32.00;68.00;;;;;;4132507;28;20086;-56
2022/01/17 05:34:17;;;;;;;2.80;1.73;;;32.00;68.00;;;;;;4129907;28;20237;-54
2022/01/17 05:36:40;;;;;;;2.65;1.83;;;32.10;67.90;;;;;;4131424;28;20041;-53
2022/01/17 05:39:04;;;;;;;3.30;2.13;;;32.10;68.00;;;;;;4133390;28;20146;-56
2022/01/17 05:41:26;;;;;;;;;;;32.10;68.00;;;;;;4131451;28;20660;-58
2022/01/17 05:43:49;;;;;;;4.30;1.95;;;32.10;68.20;;;;;;4129391;28;20531;-56
2022/01/17 05:46:12;;;;;;;5.88;2.00;;;32.20;69.20;;;;;;4130644;28;20075;-52
2022/01/17 05:48:35;;;;;;;5.05;3.00;;;32.20;68.80;;;;;;4132927;28;20038;-57
2022/01/17 05:50:58;;;;;;;12.65;10.23;;;32.20;68.30;;;;;;4137622;28;20480;-60
2022/01/17 05:53:21;;;;;;;18.23;15.20;;;32.10;66.90;;;;;;4139911;28;20042;-49
2022/01/17 05:55:45;;;;;;;12.90;11.57;;;32.10;66.60;;;;;;4141441;28;20525;-59
2022/01/17 05:58:08;;;;;;;11.18;9.52;;;32.10;67.50;;;;;;4089761;28;20163;-59
2022/01/17 06:00:31;;;;;;;11.32;8.80;;;32.20;67.90;;;;;;4139555;28;20124;-58
2022/01/17 06:02:53;;;;;;;10.73;7.93;;;32.20;68.00;;;;;;4132159;28;20041;-58
2022/01/17 06:05:17;;;;;;;9.53;7.00;;;32.30;67.70;;;;;;4137573;28;20066;-58
2022/01/17 06:07:41;;;;;;;9.13;6.82;;;32.30;67.70;;;;;;4141132;28;20105;-57
2022/01/17 06:10:04;;;;;;;14.02;12.38;;;32.30;67.50;;;;;;4135938;28;20064;-59
2022/01/17 06:12:27;;;;;;;;;;;32.30;63.90;;;;;;4138109;28;20116;-61
2022/01/17 06:14:50;;;;;;;17.88;16.17;;;32.10;62.10;;;;;;4141054;28;20524;-59
2022/01/17 06:17:13;;;;;;;23.10;20.73;;;31.90;60.10;;;;;;4134103;28;20061;-58
2022/01/17 06:19:36;;;;;;;22.60;20.40;;;31.60;57.50;;;;;;4121301;28;20035;-58
2022/01/17 06:21:59;;;;;;;23.50;21.17;;;31.30;56.60;;;;;;4135085;28;20048;-61
2022/01/17 06:24:25;;;;;;;22.67;20.38;;;31.00;57.40;;;;;;4134860;28;20054;-59
2022/01/17 06:26:48;;;;;;;20.75;18.70;;;30.80;58.10;;;;;;4128395;28;20134;-58
2022/01/17 06:29:14;;;;;;;22.53;20.23;;;30.60;56.40;;;;;;4135732;28;20668;-59
2022/01/17 06:31:39;;;;;;;19.60;17.52;;;30.40;56.80;;;;;;4129123;28;20045;-57
2022/01/17 06:34:03;;;;;;;16.13;13.63;;;30.20;55.90;;;;;;4134018;28;20103;-57
2022/01/17 06:36:27;;;;;;;13.10;11.85;;;30.10;57.70;;;;;;4139260;28;20034;-58
2022/01/17 06:38:51;;;;;;;9.82;8.82;;;30.10;59.10;;;;;;4137717;28;20565;-58
2022/01/17 06:41:13;;;;;;;;;;;30.20;59.30;;;;;;4129334;28;20034;-58
2022/01/17 06:43:37;;;;;;;7.45;5.50;;;30.20;59.70;;;;;;4136747;28;19955;-58
2022/01/17 06:46:00;;;;;;;6.35;5.10;;;30.30;60.30;;;;;;4123410;28;20124;-59
2022/01/17 06:48:23;;;;;;;7.25;4.53;;;30.30;60.60;;;;;;4133472;28;20034;-60
2022/01/17 06:50:46;;;;;;;4.65;3.78;;;30.40;61.00;;;;;;4138247;28;20065;-58
2022/01/17 06:53:10;;;;;;;3.75;3.17;;;30.50;61.50;;;;;;4136581;28;20059;-59
2022/01/17 06:55:33;;;;;;;5.88;3.00;;;30.60;62.10;;;;;;4134127;28;20041;-59
2022/01/17 06:57:57;;;;;;;4.50;2.28;;;30.60;62.70;;;;;;4135172;28;20038;-58
2022/01/17 07:00:21;;;;;;;3.67;2.70;;;30.70;63.10;;;;;;4137396;28;20574;-59
2022/01/17 07:02:44;;;;;;;4.05;2.30;;;30.80;63.70;;;;;;4136730;28;20577;-57
2022/01/17 07:05:07;;;;;;;6.40;2.10;;;30.80;63.60;;;;;;4137374;28;20143;-56
2022/01/17 07:07:31;;;;;;;4.22;2.15;;;30.90;64.70;;;;;;4136902;28;20427;-55
2022/01/17 07:09:53;;;;;;;4.10;2.00;;;30.90;64.30;;;;;;4130594;28;20519;-54
2022/01/17 07:12:16;;;;;;;2.50;1.70;;;31.00;64.70;;;;;;4131168;28;20056;-57
2022/01/17 07:14:41;;;;;;;5.80;3.75;;;31.00;65.20;;;;;;4130934;28;20129;-58
2022/01/17 07:17:04;;;;;;;6.25;5.15;;;31.10;64.40;;;;;;4122595;28;20050;-58
2022/01/17 07:19:28;;;;;;;8.10;6.68;;;31.00;60.70;;;;;;4139049;28;20046;-58
2022/01/17 07:21:51;;;;;;;;;;;30.90;58.80;;;;;;4139013;28;20042;-58
2022/01/17 07:24:14;;;;;;;7.18;6.47;;;30.60;59.40;;;;;;4125846;28;19912;-57
2022/01/17 07:26:38;;;;;;;6.80;6.00;;;30.50;57.70;;;;;;4135655;28;20046;-59
2022/01/17 07:29:05;;;;;;;6.53;5.70;;;30.30;56.90;;;;;;4137979;28;20108;-56
2022/01/17 07:31:28;;;;;;;6.35;5.50;;;30.10;56.80;;;;;;4138870;28;20037;-55
2022/01/17 07:33:51;;;;;;;7.68;5.72;;;29.90;56.90;;;;;;4139220;28;20050;-57
2022/01/17 07:36:19;;;;;;;7.22;5.78;;;29.70;57.30;;;;;;4135521;28;20045;-52
2022/01/17 07:38:42;;;;;;;7.40;5.85;;;29.50;56.40;;;;;;4138840;28;20081;-58
2022/01/17 07:41:08;;;;;;;6.47;5.70;;;29.40;56.20;;;;;;4138551;28;20080;-58
2022/01/17 07:43:32;;;;;;;6.05;4.80;;;29.20;56.10;;;;;;4136210;28;20691;-55
2022/01/17 07:46:04;;;;;;;5.80;4.55;;;29.10;56.10;;;;;;4137700;28;20577;-57
2022/01/17 07:50:58;;;;;;;5.70;4.50;;;28.80;56.10;;;;;;4134673;28;20057;-55
2022/01/17 07:53:21;;;;;;;6.82;4.93;;;28.60;56.60;;;;;;4141306;28;20041;-58
2022/01/17 07:55:45;;;;;;;5.22;3.83;;;28.40;55.90;;;;;;4135249;28;20125;-57
2022/01/17 07:58:08;;;;;;;4.88;4.10;;;28.30;56.50;;;;;;4125423;28;20108;-57
2022/01/17 08:00:32;;;;;;;5.18;3.13;;;28.20;55.50;;;;;;4095225;28;20045;-58
2022/01/17 08:02:58;;;;;;;5.05;2.90;;;28.10;55.20;;;;;;4147010;28;20075;-55
2022/01/17 08:05:22;;;;;;;3.40;2.50;;;28.00;56.30;;;;;;4154397;28;20038;-57
2022/01/17 08:07:44;;;;;;;;;;;28.00;57.10;;;;;;4156905;28;20053;-57
2022/01/17 08:10:12;;;;;;;2.70;1.90;;;28.00;57.80;;;;;;4137273;28;19921;-57
2022/01/17 08:12:35;;;;;;;3.45;1.83;;;28.10;58.60;;;;;;4153367;28;20495;-60
2022/01/17 08:15:04;;;;;;;2.88;1.27;;;28.10;59.10;;;;;;4153156;28;20056;-58
2022/01/17 08:17:27;;;;;;;3.65;1.35;;;28.20;59.50;;;;;;4147882;28;20033;-60
2022/01/17 08:19:50;;;;;;;1.63;0.98;;;28.30;59.90;;;;;;4156266;28;20099;-59
2022/01/17 08:22:13;;;;;;;2.90;0.80;;;28.30;60.10;;;;;;4156517;28;20594;-58
2022/01/17 08:24:37;;;;;;;2.05;1.02;;;28.40;61.60;;;;;;4155458;28;20121;-52
2022/01/17 08:27:01;;;;;;;2.05;1.50;;;28.50;61.20;;;;;;4156923;28;20052;-62
2022/01/17 08:29:28;;;;;;;1.52;1.13;;;28.60;61.20;;;;;;4159382;28;20127;-63
2022/01/17 08:31:51;;;;;;;5.72;1.25;;;28.70;61.20;;;;;;4152078;28;20361;-60
2022/01/17 08:34:17;;;;;;;3.70;1.52;;;28.70;61.30;;;;;;4155848;28;20780;-60
2022/01/17 08:36:40;;;;;;;2.83;1.45;;;28.70;61.80;;;;;;4151923;28;20670;-59
2022/01/17 08:39:03;;;;;;;5.97;1.38;;;28.80;62.40;;;;;;4156362;28;20041;-58
2022/01/17 08:41:26;;;;;;;5.47;1.17;;;28.90;63.20;;;;;;4133074;28;20073;-57
2022/01/17 08:43:50;;;;;;;8.25;1.83;;;29.00;63.90;;;;;;4138284;28;20053;-63
2022/01/17 08:46:13;;;;;;;2.00;1.38;;;29.00;64.00;;;;;;4158544;28;20037;-60
2022/01/17 08:48:37;;;;;;;;;;;29.10;64.30;;;;;;4156838;28;20038;-59
2022/01/17 08:51:00;;;;;;;4.95;1.55;;;29.10;64.50;;;;;;4156184;28;20349;-59
2022/01/17 08:53:23;;;;;;;4.93;1.50;;;29.20;65.00;;;;;;4104425;28;20045;-58
2022/01/17 08:55:48;;;;;;;2.72;1.23;;;29.20;65.20;;;;;;4141228;28;20093;-60
2022/01/17 08:58:12;;;;;;;2.97;1.70;;;29.30;65.60;;;;;;4155887;28;20045;-59
2022/01/17 09:00:35;;;;;;;2.33;1.23;;;29.30;65.60;;;;;;4158542;28;20175;-60
2022/01/17 09:03:02;;;;;;;6.72;1.83;;;29.30;65.60;;;;;;4156672;28;20080;-58
2022/01/17 09:05:26;;;;;;;4.53;1.90;;;29.40;65.70;;;;;;4158446;28;20049;-59
2022/01/17 09:07:49;;;;;;;5.65;2.20;;;29.40;65.70;;;;;;4155437;28;20584;-61
2022/01/17 09:10:13;;;;;;;4.40;2.28;;;29.50;65.80;;;;;;4143794;28;20057;-59
2022/01/17 09:12:37;;;;;;;6.15;2.72;;;29.50;65.70;;;;;;4153112;28;20029;-62
2022/01/17 09:15:01;;;;;;;4.82;2.40;;;29.50;65.70;;;;;;4145712;28;20037;-60
2022/01/17 09:17:24;;;;;;;5.38;2.40;;;29.50;65.80;;;;;;4154008;28;20049;-59
2022/01/17 09:19:48;;;;;;;4.18;2.47;;;29.50;65.70;;;;;;4154141;28;20068;-59
2022/01/17 09:22:11;;;;;;;7.38;2.40;;;29.50;65.60;;;;;;4143506;28;20037;-60
2022/01/17 09:24:36;;;;;;;4.15;2.58;;;29.50;65.70;;;;;;4152075;28;20037;-60
2022/01/17 09:26:59;;;;;;;4.05;2.40;;;29.50;65.70;;;;;;4158189;28;20084;-59
2022/01/17 09:29:22;;;;;;;5.95;2.80;;;29.60;65.80;;;;;;4150089;28;20057;-59
2022/01/17 09:31:45;;;;;;;5.30;2.70;;;29.60;65.70;;;;;;4155486;28;20526;-60
2022/01/17 09:34:08;;;;;;;9.90;2.95;;;29.60;65.70;;;;;;4159319;28;20037;-59
2022/01/17 09:36:34;;;;;;;7.77;3.07;;;29.60;65.70;;;;;;4149566;28;20076;-59
2022/01/17 09:38:57;;;;;;;5.45;2.33;;;29.70;65.60;;;;;;4152663;28;20088;-58
2022/01/17 09:41:20;;;;;;;;;;;29.80;65.60;;;;;;4154788;28;20115;-63
2022/01/17 09:43:43;;;;;;;5.20;2.72;;;29.70;65.50;;;;;;4148777;28;19939;-64
2022/01/17 09:46:09;;;;;;;9.73;3.00;;;29.80;65.60;;;;;;4153301;28;20821;-57
2022/01/17 09:48:35;;;;;;;6.75;2.80;;;29.80;65.60;;;;;;4156515;28;20203;-59
2022/01/17 09:51:10;;;;;;;6.13;3.10;;;29.80;65.40;;;;;;4153478;28;20128;-61
2022/01/17 09:53:39;;;;;;;3.50;2.22;;;29.80;65.30;;;;;;4154952;28;20112;-60
2022/01/17 09:56:03;;;;;;;6.68;2.80;;;29.80;65.20;;;;;;4156839;28;20704;-60
2022/01/17 09:58:27;;;;;;;6.55;2.72;;;29.80;65.10;;;;;;4157308;28;20041;-60
2022/01/17 10:00:51;;;;;;;4.13;2.42;;;29.80;65.20;;;;;;4158576;28;20049;-60
2022/01/17 10:03:21;;;;;;;4.63;2.60;;;29.80;65.20;;;;;;4157251;28;20184;-58
2022/01/17 10:05:44;;;;;;;3.95;2.45;;;29.80;65.20;;;;;;4144959;28;20061;-58
2022/01/17 10:08:15;;;;;;;5.60;2.40;;;29.80;65.30;;;;;;4162486;28;20040;-59
2022/01/17 10:11:02;;;;;;;3.83;2.35;;;29.80;65.50;;;;;;4162841;28;20304;-60
2022/01/17 10:13:32;;;;;;;5.57;2.22;;;29.90;65.90;;;;;;4164195;28;20203;-59
2022/01/17 10:16:12;;;;;;;7.68;2.60;;;29.90;66.00;;;;;;4162077;28;20084;-61
2022/01/17 10:18:37;;;;;;;5.55;2.40;;;29.90;66.30;;;;;;4161544;28;20041;-61
2022/01/17 10:21:10;;;;;;;5.47;2.40;;;29.90;66.50;;;;;;4158993;28;20430;-59
2022/01/17 10:27:07;;;;;;;3.88;2.05;;;29.90;66.50;;;;;;4158014;28;20045;-60
2022/01/17 10:36:52;;;;;;;5.50;1.77;;;29.90;66.60;;;;;;4156819;28;20617;-61
2022/01/17 10:39:16;;;;;;;4.10;1.77;;;29.90;66.60;;;;;;4150393;28;20048;-61
2022/01/17 10:41:40;;;;;;;2.35;1.52;;;29.90;66.60;;;;;;4149352;28;20052;-62
2022/01/17 10:44:03;;;;;;;4.50;1.70;;;29.90;66.60;;;;;;4149527;28;20037;-62
2022/01/17 10:46:27;;;;;;;4.63;1.98;;;29.90;66.60;;;;;;4149997;28;20493;-60
2022/01/17 10:48:56;;;;;;;3.88;1.85;;;29.90;66.70;;;;;;4155890;28;20114;-59
2022/01/17 10:51:29;;;;;;;3.45;1.73;;;30.00;66.60;;;;;;4138302;28;20049;-59
2022/01/17 10:53:53;;;;;;;4.50;1.98;;;30.00;66.60;;;;;;4155208;28;20049;-59
2022/01/17 10:56:16;;;;;;;5.68;1.95;;;30.00;67.50;;;;;;4156222;28;20044;-59
2022/01/17 10:58:41;;;;;;;6.65;1.98;;;30.00;67.00;;;;;;4154686;28;20051;-59
2022/01/17 11:01:16;;;;;;;2.70;1.75;;;30.00;66.90;;;;;;4153884;28;20467;-61
2022/01/17 11:03:42;;;;;;;4.72;2.13;;;30.00;66.80;;;;;;4154540;28;20430;-59
2022/01/17 11:06:11;;;;;;;3.97;2.03;;;30.00;66.70;;;;;;4156611;28;20053;-60
2022/01/17 11:08:40;;;;;;;3.92;1.90;;;30.00;66.70;;;;;;4156391;28;20037;-59
2022/01/17 11:11:08;;;;;;;4.03;1.80;;;30.00;66.60;;;;;;4154913;28;20049;-61
2022/01/17 11:13:33;;;;;;;3.92;2.00;;;30.00;66.50;;;;;;4153665;28;20037;-60
2022/01/17 11:15:59;;;;;;;4.20;1.90;;;30.00;66.40;;;;;;4154393;28;20053;-60
2022/01/17 11:18:27;;;;;;;3.20;2.00;;;30.10;66.50;;;;;;4154088;28;20052;-59
2022/01/17 11:21:03;;;;;;;3.25;2.10;;;30.10;66.40;;;;;;4154583;28;20084;-59
2022/01/17 11:23:28;;;;;;;4.43;1.67;;;30.10;66.40;;;;;;4155916;28;20115;-61
2022/01/17 11:25:54;;;;;;;4.15;2.17;;;30.10;66.40;;;;;;4153717;28;20094;-60
2022/01/17 11:28:18;;;;;;;3.20;1.88;;;30.10;66.40;;;;;;4157462;28;20482;-62
2022/01/17 11:30:41;;;;;;;4.05;2.08;;;30.10;66.50;;;;;;4152889;28;20045;-60
2022/01/17 11:33:06;;;;;;;;;;;30.10;66.60;;;;;;4155838;28;20117;-61
2022/01/17 11:35:29;;;;;;;4.88;1.88;;;30.10;66.60;;;;;;4155653;28;20317;-62
2022/01/17 11:37:58;;;;;;;2.80;1.60;;;30.10;66.60;;;;;;4155276;28;20621;-59
2022/01/17 11:40:28;;;;;;;3.38;1.55;;;30.10;66.60;;;;;;4151169;28;20539;-61
2022/01/17 11:42:54;;;;;;;4.82;1.80;;;30.10;66.70;;;;;;4155690;28;20044;-59
2022/01/17 11:45:23;;;;;;;2.70;1.55;;;30.10;66.80;;;;;;4156816;28;20423;-62
2022/01/17 11:48:07;;;;;;;3.88;2.10;;;30.10;66.70;;;;;;4155625;28;20037;-60
2022/01/17 11:50:35;;;;;;;4.03;1.83;;;30.10;66.70;;;;;;4153788;28;20803;-59
2022/01/17 11:53:13;;;;;;;5.38;2.10;;;30.10;66.70;;;;;;4152710;28;20158;-60
2022/01/17 11:55:42;;;;;;;3.08;1.70;;;30.10;66.60;;;;;;4153322;28;20045;-60
2022/01/17 11:58:31;;;;;;;3.30;1.98;;;30.10;66.70;;;;;;4155357;28;20053;-60
2022/01/17 12:01:04;;;;;;;3.63;1.95;;;30.10;66.60;;;;;;4155683;28;20493;-64
2022/01/17 12:03:41;;;;;;;3.90;1.92;;;30.10;66.70;;;;;;4155493;28;20527;-62
2022/01/17 12:06:17;;;;;;;4.95;1.58;;;30.10;66.80;;;;;;4152809;28;20745;-60
2022/01/17 12:08:41;;;;;;;2.97;1.80;;;30.10;66.90;;;;;;4156825;28;20079;-62
2022/01/17 12:11:08;;;;;;;4.38;2.05;;;30.10;66.80;;;;;;4156261;28;20049;-62
2022/01/17 12:13:43;;;;;;;5.80;2.17;;;30.10;66.80;;;;;;4155414;28;20045;-61
2022/01/17 12:16:21;;;;;;;3.00;1.77;;;30.10;66.70;;;;;;4153692;28;20479;-62
2022/01/17 12:18:49;;;;;;;2.25;1.60;;;30.10;66.60;;;;;;4151544;28;20975;-62
2022/01/17 12:21:29;;;;;;;1.65;1.40;;;30.10;66.60;;;;;;4152230;28;20115;-66
2022/01/17 12:24:18;;;;;;;2.72;2.00;;;30.10;66.60;;;;;;4153325;28;20037;-62
2022/01/17 12:26:42;;;;;;;2.88;1.98;;;30.10;66.60;;;;;;4154916;28;20039;-65
2022/01/17 12:29:05;;;;;;;3.35;2.20;;;30.10;66.50;;;;;;4154735;28;20186;-63
2022/01/17 12:31:46;;;;;;;3.00;1.70;;;30.10;66.50;;;;;;4151021;28;20045;-62
2022/01/17 12:34:24;;;;;;;3.75;1.85;;;30.10;66.50;;;;;;4156735;28;20099;-61
2022/01/17 12:36:50;;;;;;;3.53;1.90;;;30.10;66.60;;;;;;4154337;28;20060;-60
2022/01/17 12:39:16;;;;;;;4.57;2.30;;;30.10;66.70;;;;;;4154231;28;20533;-59
2022/01/17 12:41:41;;;;;;;4.50;2.47;;;30.10;66.20;;;;;;4155094;28;20131;-60
2022/01/17 12:44:17;;;;;;;5.55;2.40;;;30.10;65.90;;;;;;4144835;28;20140;-60
2022/01/17 12:46:44;;;;;;;4.43;2.50;;;30.10;65.70;;;;;;4154430;28;20088;-59
2022/01/17 12:49:07;;;;;;;4.18;2.63;;;30.10;66.40;;;;;;4152774;28;20072;-62
2022/01/17 12:51:34;;;;;;;8.45;2.42;;;30.10;66.90;;;;;;4139365;28;20089;-63
2022/01/17 12:53:58;;;;;;;6.70;2.50;;;30.10;67.10;;;;;;4152845;28;20030;-63
2022/01/17 12:56:21;;;;;;;8.65;2.40;;;30.10;67.40;;;;;;4152191;28;20529;-67
2022/01/17 12:58:46;;;;;;;5.40;2.63;;;30.10;67.80;;;;;;4150616;28;20811;-61
2022/01/17 13:01:12;;;;;;;8.55;2.60;;;30.10;68.00;;;;;;4156332;28;20041;-61
2022/01/17 13:03:38;;;;;;;4.18;2.17;;;30.10;67.90;;;;;;4155070;28;20045;-60
2022/01/17 13:06:04;;;;;;;4.35;2.50;;;30.10;67.90;;;;;;4155261;28;20433;-63
2022/01/17 13:08:30;;;;;;;3.22;2.15;;;30.10;67.80;;;;;;4158607;28;20512;-63
2022/01/17 13:10:55;;;;;;;6.43;2.10;;;30.20;67.60;;;;;;4156585;28;20041;-60